Daydream Believer — V7XJ3 — position and weather

sailwx.info

Track history (hours):
 
Tides and Currents Weather Stations Pressure Air Temp Water Temp Dewpoint Dewpoint Depression Visibility Wind Speed Wind Dir Waves Ship Positions

Daydream Believer

Last reported at 2016-Oct-30 20:33 UTC. Time now 2016-Dec-03 11:32 UTC.
Position S 26°48' E 154°10'.
Warning: this ship's position is 33 days out of date.

Length 178 m; draft 10.9 m.

Type: Ship. MMSI: 538004493.

Date/timePositionNaut miles runAvg speedWind from/ knotsBaromVisibWave heightAir tempDewpointWater temp
2016-Oct-30 20:33S 26°48' E 154°10'84 9.3
2016-Oct-30 11:32S 28°12' E 154°10'116 9.5
2016-Oct-29 23:25S 30°08' E 154°06'114 9.4
2016-Oct-29 11:18S 31°53' E 153°14'16 9.2
2016-Oct-29 09:33S 32°08' E 153°07'26 8.8
2016-Oct-29 06:33S 32°30' E 152°50'2110.4
2016-Oct-29 04:34S 32°41' E 152°29'2010.2
2016-Oct-29 02:33S 32°53' E 152°10'20 6.5
2016-Oct-28 23:33S 32°54' E 151°46'0 0.0
2016-Oct-28 21:33S 32°54' E 151°46'0 0.0
2016-Oct-28 19:33S 32°54' E 151°46'0 0.0
2016-Oct-28 16:33S 32°54' E 151°46'0 0.0
2016-Oct-28 15:33S 32°54' E 151°46'0 0.0
2016-Oct-28 14:33S 32°54' E 151°46'0 0.0
2016-Oct-28 09:33S 32°54' E 151°46'0 0.0
2016-Oct-28 08:33S 32°54' E 151°46'0 0.0
2016-Oct-28 07:33S 32°54' E 151°46'0 0.0
2016-Oct-28 00:32S 32°54' E 151°46'0 0.0
2016-Oct-27 23:32S 32°54' E 151°46'6 3.1
2016-Oct-27 21:33S 32°58' E 151°52'23 5.9
2016-Oct-27 17:33S 32°48' E 152°17'11 5.3
2016-Oct-27 15:33S 32°42' E 152°28'29 7.3
2016-Oct-27 11:33S 32°26' E 152°57'12 5.9
2016-Oct-27 09:33S 32°16' E 153°03'4912.2
2016-Oct-27 05:33S 31°31' E 153°25'1313.5
2016-Oct-27 04:33S 31°18' E 153°31'1413.3
2016-Oct-27 03:32S 31°06' E 153°38'18811.7
2016-Oct-26 11:33S 28°01' E 154°16'1514.0
2016-Oct-26 10:30S 27°46' E 154°17'2814.1
2016-Oct-26 08:33S 27°19' E 154°19'1713.9
2016-Oct-26 07:18S 27°02' E 154°20'  
Track history (hours):
 
Tides and Currents Weather Stations Pressure Air Temp Water Temp Dewpoint Dewpoint Depression Visibility Wind Speed Wind Dir Waves Ship Positions

Daydream Believer

Last reported at 2016-Oct-30 20:33 UTC. Time now 2016-Dec-03 11:32 UTC.
Position S 26°48' E 154°10'.
Warning: this ship's position is 33 days out of date.

Length 178 m; draft 10.9 m.

Type: Ship. MMSI: 538004493.

Date/timePositionNaut miles runAvg speedWind from/ knotsBaromVisibWave heightAir tempDewpointWater temp
2016-Oct-30 20:33S 26°48' E 154°10'84 9.3
2016-Oct-30 11:32S 28°12' E 154°10'116 9.5
2016-Oct-29 23:25S 30°08' E 154°06'114 9.4
2016-Oct-29 11:18S 31°53' E 153°14'16 9.2
2016-Oct-29 09:33S 32°08' E 153°07'26 8.8
2016-Oct-29 06:33S 32°30' E 152°50'2110.4
2016-Oct-29 04:34S 32°41' E 152°29'2010.2
2016-Oct-29 02:33S 32°53' E 152°10'20 6.5
2016-Oct-28 23:33S 32°54' E 151°46'0 0.0
2016-Oct-28 21:33S 32°54' E 151°46'0 0.0
2016-Oct-28 19:33S 32°54' E 151°46'0 0.0
2016-Oct-28 16:33S 32°54' E 151°46'0 0.0
2016-Oct-28 15:33S 32°54' E 151°46'0 0.0
2016-Oct-28 14:33S 32°54' E 151°46'0 0.0
2016-Oct-28 09:33S 32°54' E 151°46'0 0.0
2016-Oct-28 08:33S 32°54' E 151°46'0 0.0
2016-Oct-28 07:33S 32°54' E 151°46'0 0.0
2016-Oct-28 00:32S 32°54' E 151°46'0 0.0
2016-Oct-27 23:32S 32°54' E 151°46'6 3.1
2016-Oct-27 21:33S 32°58' E 151°52'23 5.9
2016-Oct-27 17:33S 32°48' E 152°17'11 5.3
2016-Oct-27 15:33S 32°42' E 152°28'29 7.3
2016-Oct-27 11:33S 32°26' E 152°57'12 5.9
2016-Oct-27 09:33S 32°16' E 153°03'4912.2
2016-Oct-27 05:33S 31°31' E 153°25'1313.5
2016-Oct-27 04:33S 31°18' E 153°31'1413.3
2016-Oct-27 03:32S 31°06' E 153°38'18811.7
2016-Oct-26 11:33S 28°01' E 154°16'1514.0
2016-Oct-26 10:30S 27°46' E 154°17'2814.1
2016-Oct-26 08:33S 27°19' E 154°19'1713.9
2016-Oct-26 07:18S 27°02' E 154°20'  

Dump ship's entire track history